sensor_id;sensor_type;location;lat;lon;timestamp;temperature;humidity
262;DHT22;114;48.260;10.988;2022-07-22T00:01:23;17.20;90.80
262;DHT22;114;48.260;10.988;2022-07-22T00:03:49;17.20;90.50
262;DHT22;114;48.260;10.988;2022-07-22T00:06:15;17.10;90.30
262;DHT22;114;48.260;10.988;2022-07-22T00:08:41;17.10;90.60
262;DHT22;114;48.260;10.988;2022-07-22T00:11:07;17.00;90.70
262;DHT22;114;48.260;10.988;2022-07-22T00:13:33;17.00;90.90
262;DHT22;114;48.260;10.988;2022-07-22T00:15:59;16.90;91.30
262;DHT22;114;48.260;10.988;2022-07-22T00:18:25;16.90;91.50
262;DHT22;114;48.260;10.988;2022-07-22T00:20:51;16.90;91.80
262;DHT22;114;48.260;10.988;2022-07-22T00:23:16;16.80;92.00
262;DHT22;114;48.260;10.988;2022-07-22T00:25:42;16.80;92.30
262;DHT22;114;48.260;10.988;2022-07-22T00:28:08;16.80;92.30
262;DHT22;114;48.260;10.988;2022-07-22T00:30:34;16.70;92.30
262;DHT22;114;48.260;10.988;2022-07-22T00:33:00;16.60;92.20
262;DHT22;114;48.260;10.988;2022-07-22T00:35:26;16.60;92.00
262;DHT22;114;48.260;10.988;2022-07-22T00:37:52;16.60;92.20
262;DHT22;114;48.260;10.988;2022-07-22T00:40:18;16.60;91.90
262;DHT22;114;48.260;10.988;2022-07-22T00:42:45;16.50;91.70
262;DHT22;114;48.260;10.988;2022-07-22T00:45:11;16.40;91.60
262;DHT22;114;48.260;10.988;2022-07-22T00:47:37;16.40;91.90
262;DHT22;114;48.260;10.988;2022-07-22T00:50:04;16.40;91.90
262;DHT22;114;48.260;10.988;2022-07-22T00:52:30;16.40;91.70
262;DHT22;114;48.260;10.988;2022-07-22T00:55:01;16.30;91.80
262;DHT22;114;48.260;10.988;2022-07-22T00:57:27;16.30;91.20
262;DHT22;114;48.260;10.988;2022-07-22T00:59:54;16.20;91.30
262;DHT22;114;48.260;10.988;2022-07-22T01:02:20;16.10;91.40
262;DHT22;114;48.260;10.988;2022-07-22T01:04:46;16.10;91.20
262;DHT22;114;48.260;10.988;2022-07-22T01:07:12;16.10;91.40
262;DHT22;114;48.260;10.988;2022-07-22T01:09:41;16.10;91.80
262;DHT22;114;48.260;10.988;2022-07-22T01:12:07;16.10;92.10
262;DHT22;114;48.260;10.988;2022-07-22T01:14:33;16.00;92.30
262;DHT22;114;48.260;10.988;2022-07-22T01:16:59;16.00;92.30
262;DHT22;114;48.260;10.988;2022-07-22T01:19:24;15.90;92.00
262;DHT22;114;48.260;10.988;2022-07-22T01:21:50;15.90;92.10
262;DHT22;114;48.260;10.988;2022-07-22T01:24:16;15.90;92.50
262;DHT22;114;48.260;10.988;2022-07-22T01:26:42;15.80;92.70
262;DHT22;114;48.260;10.988;2022-07-22T01:29:08;15.80;92.90
262;DHT22;114;48.260;10.988;2022-07-22T01:31:34;15.70;93.20
262;DHT22;114;48.260;10.988;2022-07-22T01:34:00;15.70;93.40
262;DHT22;114;48.260;10.988;2022-07-22T01:36:26;15.60;93.80
262;DHT22;114;48.260;10.988;2022-07-22T01:38:52;15.60;93.60
262;DHT22;114;48.260;10.988;2022-07-22T01:41:18;15.60;93.70
262;DHT22;114;48.260;10.988;2022-07-22T01:43:44;15.50;93.70
262;DHT22;114;48.260;10.988;2022-07-22T01:46:13;15.50;93.70
262;DHT22;114;48.260;10.988;2022-07-22T01:48:39;15.50;94.00
262;DHT22;114;48.260;10.988;2022-07-22T01:51:08;15.50;94.20
262;DHT22;114;48.260;10.988;2022-07-22T01:53:34;15.50;94.30
262;DHT22;114;48.260;10.988;2022-07-22T01:56:00;15.50;94.50
262;DHT22;114;48.260;10.988;2022-07-22T01:58:26;15.50;94.50
262;DHT22;114;48.260;10.988;2022-07-22T02:00:52;15.40;94.20
262;DHT22;114;48.260;10.988;2022-07-22T02:03:18;15.30;93.30
262;DHT22;114;48.260;10.988;2022-07-22T02:05:44;15.20;93.00
262;DHT22;114;48.260;10.988;2022-07-22T02:08:10;15.10;93.10
262;DHT22;114;48.260;10.988;2022-07-22T02:10:37;15.10;93.90
262;DHT22;114;48.260;10.988;2022-07-22T02:13:04;15.10;93.80
262;DHT22;114;48.260;10.988;2022-07-22T02:15:30;15.00;93.90
262;DHT22;114;48.260;10.988;2022-07-22T02:17:56;15.00;94.00
262;DHT22;114;48.260;10.988;2022-07-22T02:20:22;15.00;94.10
262;DHT22;114;48.260;10.988;2022-07-22T02:22:48;15.00;94.80
262;DHT22;114;48.260;10.988;2022-07-22T02:25:14;15.00;94.80
262;DHT22;114;48.260;10.988;2022-07-22T02:27:41;15.00;94.80
262;DHT22;114;48.260;10.988;2022-07-22T02:30:08;15.00;94.90
262;DHT22;114;48.260;10.988;2022-07-22T02:32:34;14.90;94.80
262;DHT22;114;48.260;10.988;2022-07-22T02:35:00;14.90;95.20
262;DHT22;114;48.260;10.988;2022-07-22T02:37:26;14.90;95.40
262;DHT22;114;48.260;10.988;2022-07-22T02:39:52;14.80;96.20
262;DHT22;114;48.260;10.988;2022-07-22T02:42:19;14.90;96.10
262;DHT22;114;48.260;10.988;2022-07-22T02:44:46;14.80;96.30
262;DHT22;114;48.260;10.988;2022-07-22T02:47:12;14.80;96.10
262;DHT22;114;48.260;10.988;2022-07-22T02:49:38;14.70;95.80
262;DHT22;114;48.260;10.988;2022-07-22T02:52:03;14.70;96.00
262;DHT22;114;48.260;10.988;2022-07-22T02:54:29;14.70;95.20
262;DHT22;114;48.260;10.988;2022-07-22T02:56:55;14.70;95.40
262;DHT22;114;48.260;10.988;2022-07-22T02:59:20;14.60;95.60
262;DHT22;114;48.260;10.988;2022-07-22T03:01:46;14.60;95.50
262;DHT22;114;48.260;10.988;2022-07-22T03:04:12;14.60;95.90
262;DHT22;114;48.260;10.988;2022-07-22T03:06:38;14.50;96.10
262;DHT22;114;48.260;10.988;2022-07-22T03:09:04;14.50;96.40
262;DHT22;114;48.260;10.988;2022-07-22T03:11:30;14.50;96.50
262;DHT22;114;48.260;10.988;2022-07-22T03:13:56;14.50;96.50
262;DHT22;114;48.260;10.988;2022-07-22T03:16:21;14.50;96.50
262;DHT22;114;48.260;10.988;2022-07-22T03:18:47;14.50;96.60
262;DHT22;114;48.260;10.988;2022-07-22T03:21:13;14.50;96.90
262;DHT22;114;48.260;10.988;2022-07-22T03:23:39;14.50;96.60
262;DHT22;114;48.260;10.988;2022-07-22T03:26:05;14.50;96.60
262;DHT22;114;48.260;10.988;2022-07-22T03:28:31;14.40;96.50
262;DHT22;114;48.260;10.988;2022-07-22T03:30:57;14.40;96.10
262;DHT22;114;48.260;10.988;2022-07-22T03:33:26;14.40;96.40
262;DHT22;114;48.260;10.988;2022-07-22T03:35:52;14.30;96.30
262;DHT22;114;48.260;10.988;2022-07-22T03:38:17;14.30;96.50
262;DHT22;114;48.260;10.988;2022-07-22T03:40:43;14.30;96.80
262;DHT22;114;48.260;10.988;2022-07-22T03:43:09;14.30;96.90
262;DHT22;114;48.260;10.988;2022-07-22T03:45:35;14.30;96.50
262;DHT22;114;48.260;10.988;2022-07-22T03:48:01;14.30;96.50
262;DHT22;114;48.260;10.988;2022-07-22T03:50:27;14.30;96.60
262;DHT22;114;48.260;10.988;2022-07-22T03:52:53;14.30;96.70
262;DHT22;114;48.260;10.988;2022-07-22T03:55:19;14.30;96.80
262;DHT22;114;48.260;10.988;2022-07-22T03:57:46;14.30;96.50
262;DHT22;114;48.260;10.988;2022-07-22T04:00:12;14.30;96.60
262;DHT22;114;48.260;10.988;2022-07-22T04:02:38;14.30;96.80
262;DHT22;114;48.260;10.988;2022-07-22T04:05:04;14.30;96.80
262;DHT22;114;48.260;10.988;2022-07-22T04:07:32;14.30;96.80
262;DHT22;114;48.260;10.988;2022-07-22T04:09:58;14.30;96.50
262;DHT22;114;48.260;10.988;2022-07-22T04:12:38;14.30;96.10
262;DHT22;114;48.260;10.988;2022-07-22T04:15:05;14.20;95.80
262;DHT22;114;48.260;10.988;2022-07-22T04:17:31;14.20;95.90
262;DHT22;114;48.260;10.988;2022-07-22T04:19:57;14.30;95.80
262;DHT22;114;48.260;10.988;2022-07-22T04:22:25;14.30;95.70
262;DHT22;114;48.260;10.988;2022-07-22T04:24:50;14.40;95.60
262;DHT22;114;48.260;10.988;2022-07-22T04:27:16;14.40;95.30
262;DHT22;114;48.260;10.988;2022-07-22T04:29:42;14.40;95.20
262;DHT22;114;48.260;10.988;2022-07-22T04:32:08;14.50;94.80
262;DHT22;114;48.260;10.988;2022-07-22T04:34:34;14.60;95.30
262;DHT22;114;48.260;10.988;2022-07-22T04:36:59;14.70;95.30
262;DHT22;114;48.260;10.988;2022-07-22T04:39:25;14.80;95.20
262;DHT22;114;48.260;10.988;2022-07-22T04:41:51;14.80;94.90
262;DHT22;114;48.260;10.988;2022-07-22T04:44:17;14.90;94.50
262;DHT22;114;48.260;10.988;2022-07-22T04:46:43;15.00;94.20
262;DHT22;114;48.260;10.988;2022-07-22T04:49:09;15.10;94.10
262;DHT22;114;48.260;10.988;2022-07-22T04:51:37;15.20;93.50
262;DHT22;114;48.260;10.988;2022-07-22T04:54:03;15.30;93.00
262;DHT22;114;48.260;10.988;2022-07-22T04:56:29;15.30;92.20
262;DHT22;114;48.260;10.988;2022-07-22T04:58:55;15.40;91.50
262;DHT22;114;48.260;10.988;2022-07-22T05:01:21;15.50;91.00
262;DHT22;114;48.260;10.988;2022-07-22T05:03:47;15.50;90.00
262;DHT22;114;48.260;10.988;2022-07-22T05:06:13;15.60;88.10
262;DHT22;114;48.260;10.988;2022-07-22T05:08:39;15.80;88.50
262;DHT22;114;48.260;10.988;2022-07-22T05:11:04;15.90;87.10
262;DHT22;114;48.260;10.988;2022-07-22T05:13:31;16.00;85.60
262;DHT22;114;48.260;10.988;2022-07-22T05:15:56;16.20;83.30
262;DHT22;114;48.260;10.988;2022-07-22T05:18:22;16.30;81.50
262;DHT22;114;48.260;10.988;2022-07-22T05:20:48;16.40;80.50
262;DHT22;114;48.260;10.988;2022-07-22T05:23:14;16.50;78.70
262;DHT22;114;48.260;10.988;2022-07-22T05:25:40;16.60;76.80
262;DHT22;114;48.260;10.988;2022-07-22T05:28:05;16.60;74.80
262;DHT22;114;48.260;10.988;2022-07-22T05:30:31;16.70;74.40
262;DHT22;114;48.260;10.988;2022-07-22T05:32:57;16.90;74.30
262;DHT22;114;48.260;10.988;2022-07-22T05:35:24;17.10;68.10
262;DHT22;114;48.260;10.988;2022-07-22T05:37:50;17.20;67.80
262;DHT22;114;48.260;10.988;2022-07-22T05:40:16;17.30;65.60
262;DHT22;114;48.260;10.988;2022-07-22T05:42:44;17.50;66.10
262;DHT22;114;48.260;10.988;2022-07-22T05:45:10;17.50;64.70
262;DHT22;114;48.260;10.988;2022-07-22T05:47:36;17.60;62.50
262;DHT22;114;48.260;10.988;2022-07-22T05:50:02;17.80;59.70
262;DHT22;114;48.260;10.988;2022-07-22T05:52:28;17.90;58.80
262;DHT22;114;48.260;10.988;2022-07-22T05:54:55;18.00;56.90
262;DHT22;114;48.260;10.988;2022-07-22T05:57:21;18.20;53.40
262;DHT22;114;48.260;10.988;2022-07-22T05:59:47;18.50;49.10
262;DHT22;114;48.260;10.988;2022-07-22T06:02:13;18.50;49.10
262;DHT22;114;48.260;10.988;2022-07-22T06:04:39;18.70;45.20
262;DHT22;114;48.260;10.988;2022-07-22T06:07:05;18.80;44.50
262;DHT22;114;48.260;10.988;2022-07-22T06:09:32;18.90;45.80
262;DHT22;114;48.260;10.988;2022-07-22T06:11:58;19.10;42.50
262;DHT22;114;48.260;10.988;2022-07-22T06:14:24;19.20;42.90
262;DHT22;114;48.260;10.988;2022-07-22T06:16:50;19.40;40.00
262;DHT22;114;48.260;10.988;2022-07-22T06:19:16;19.60;40.30
262;DHT22;114;48.260;10.988;2022-07-22T06:21:42;19.80;37.00
262;DHT22;114;48.260;10.988;2022-07-22T06:24:08;19.90;34.70
262;DHT22;114;48.260;10.988;2022-07-22T06:26:33;20.00;33.90
262;DHT22;114;48.260;10.988;2022-07-22T06:28:59;20.20;29.00
262;DHT22;114;48.260;10.988;2022-07-22T06:31:25;20.30;28.50
262;DHT22;114;48.260;10.988;2022-07-22T06:33:54;20.60;25.40
262;DHT22;114;48.260;10.988;2022-07-22T06:36:25;20.80;24.60
262;DHT22;114;48.260;10.988;2022-07-22T06:38:51;20.90;23.30
262;DHT22;114;48.260;10.988;2022-07-22T06:41:17;21.10;21.80
262;DHT22;114;48.260;10.988;2022-07-22T06:43:45;21.30;20.40
262;DHT22;114;48.260;10.988;2022-07-22T06:46:11;21.30;21.30
262;DHT22;114;48.260;10.988;2022-07-22T06:48:37;21.40;21.20
262;DHT22;114;48.260;10.988;2022-07-22T06:51:03;21.50;20.40
262;DHT22;114;48.260;10.988;2022-07-22T06:53:29;21.60;20.90
262;DHT22;114;48.260;10.988;2022-07-22T06:55:55;21.80;20.90
262;DHT22;114;48.260;10.988;2022-07-22T06:58:20;22.00;19.60
262;DHT22;114;48.260;10.988;2022-07-22T07:00:46;22.20;18.90
262;DHT22;114;48.260;10.988;2022-07-22T07:03:12;22.40;17.60
262;DHT22;114;48.260;10.988;2022-07-22T07:05:38;22.50;15.70
262;DHT22;114;48.260;10.988;2022-07-22T07:08:04;22.70;12.70
262;DHT22;114;48.260;10.988;2022-07-22T07:10:31;22.80;11.70
262;DHT22;114;48.260;10.988;2022-07-22T07:12:58;22.90;11.70
262;DHT22;114;48.260;10.988;2022-07-22T07:15:25;23.00;8.60
262;DHT22;114;48.260;10.988;2022-07-22T07:17:56;23.20;6.30
262;DHT22;114;48.260;10.988;2022-07-22T07:20:23;23.40;4.90
262;DHT22;114;48.260;10.988;2022-07-22T07:22:49;23.60;5.10
262;DHT22;114;48.260;10.988;2022-07-22T07:25:15;23.50;4.40
262;DHT22;114;48.260;10.988;2022-07-22T07:27:41;23.50;3.40
262;DHT22;114;48.260;10.988;2022-07-22T07:30:08;23.70;2.90
262;DHT22;114;48.260;10.988;2022-07-22T07:32:35;23.80;4.70
262;DHT22;114;48.260;10.988;2022-07-22T07:35:02;24.00;1.30
262;DHT22;114;48.260;10.988;2022-07-22T07:37:29;23.90;1.20
262;DHT22;114;48.260;10.988;2022-07-22T07:39:56;23.90;1.60
262;DHT22;114;48.260;10.988;2022-07-22T07:42:22;24.00;1.00
262;DHT22;114;48.260;10.988;2022-07-22T07:44:48;24.10;1.00
262;DHT22;114;48.260;10.988;2022-07-22T07:47:14;24.30;1.00
262;DHT22;114;48.260;10.988;2022-07-22T07:49:46;24.30;1.00
262;DHT22;114;48.260;10.988;2022-07-22T07:52:12;24.30;1.00
262;DHT22;114;48.260;10.988;2022-07-22T07:54:39;24.40;1.00
262;DHT22;114;48.260;10.988;2022-07-22T07:57:09;24.50;1.00
262;DHT22;114;48.260;10.988;2022-07-22T07:59:39;24.70;1.00
262;DHT22;114;48.260;10.988;2022-07-22T08:02:06;24.80;1.00
262;DHT22;114;48.260;10.988;2022-07-22T08:04:32;24.80;1.00
262;DHT22;114;48.260;10.988;2022-07-22T08:06:58;24.80;1.00
262;DHT22;114;48.260;10.988;2022-07-22T08:09:24;24.90;1.00
262;DHT22;114;48.260;10.988;2022-07-22T08:11:50;25.10;1.00
262;DHT22;114;48.260;10.988;2022-07-22T08:14:17;25.40;1.00
262;DHT22;114;48.260;10.988;2022-07-22T08:16:43;25.40;1.00
262;DHT22;114;48.260;10.988;2022-07-22T08:19:09;25.60;1.00
262;DHT22;114;48.260;10.988;2022-07-22T08:21:35;25.60;1.00
262;DHT22;114;48.260;10.988;2022-07-22T08:24:01;25.60;1.00
262;DHT22;114;48.260;10.988;2022-07-22T08:26:27;25.80;1.00
262;DHT22;114;48.260;10.988;2022-07-22T08:28:53;25.80;1.00
262;DHT22;114;48.260;10.988;2022-07-22T08:31:19;25.90;1.00
262;DHT22;114;48.260;10.988;2022-07-22T08:33:45;25.90;1.00
262;DHT22;114;48.260;10.988;2022-07-22T08:36:14;25.90;1.00
262;DHT22;114;48.260;10.988;2022-07-22T08:38:43;26.00;1.00
262;DHT22;114;48.260;10.988;2022-07-22T08:41:08;26.20;1.00
262;DHT22;114;48.260;10.988;2022-07-22T08:43:38;26.40;1.00
262;DHT22;114;48.260;10.988;2022-07-22T08:46:07;26.60;1.00
262;DHT22;114;48.260;10.988;2022-07-22T08:48:36;26.60;1.00
262;DHT22;114;48.260;10.988;2022-07-22T08:51:02;26.70;1.00
262;DHT22;114;48.260;10.988;2022-07-22T08:53:28;26.80;1.00
262;DHT22;114;48.260;10.988;2022-07-22T08:55:54;26.80;1.00
262;DHT22;114;48.260;10.988;2022-07-22T08:58:20;26.70;1.00
262;DHT22;114;48.260;10.988;2022-07-22T09:06:11;27.10;1.00
262;DHT22;114;48.260;10.988;2022-07-22T09:11:20;27.40;1.00
262;DHT22;114;48.260;10.988;2022-07-22T09:13:46;27.40;1.00
262;DHT22;114;48.260;10.988;2022-07-22T09:16:13;27.60;1.00
262;DHT22;114;48.260;10.988;2022-07-22T09:18:53;27.60;1.00
262;DHT22;114;48.260;10.988;2022-07-22T09:21:23;27.70;1.00
262;DHT22;114;48.260;10.988;2022-07-22T09:23:49;27.90;1.00
262;DHT22;114;48.260;10.988;2022-07-22T09:26:32;28.00;1.00
262;DHT22;114;48.260;10.988;2022-07-22T09:28:59;27.90;1.00
262;DHT22;114;48.260;10.988;2022-07-22T09:31:34;27.90;1.00
262;DHT22;114;48.260;10.988;2022-07-22T09:34:01;28.10;1.00
262;DHT22;114;48.260;10.988;2022-07-22T09:36:27;28.20;1.00
262;DHT22;114;48.260;10.988;2022-07-22T09:38:54;28.20;1.00
262;DHT22;114;48.260;10.988;2022-07-22T09:41:21;28.40;1.00
262;DHT22;114;48.260;10.988;2022-07-22T09:43:47;28.40;1.00
262;DHT22;114;48.260;10.988;2022-07-22T09:46:13;28.50;1.00
262;DHT22;114;48.260;10.988;2022-07-22T09:48:40;28.40;1.00
262;DHT22;114;48.260;10.988;2022-07-22T09:51:06;28.50;1.00
262;DHT22;114;48.260;10.988;2022-07-22T09:53:33;28.70;1.00
262;DHT22;114;48.260;10.988;2022-07-22T09:56:01;28.80;1.00
262;DHT22;114;48.260;10.988;2022-07-22T09:58:27;28.80;1.00
262;DHT22;114;48.260;10.988;2022-07-22T10:01:00;28.80;1.00
262;DHT22;114;48.260;10.988;2022-07-22T10:03:33;29.20;1.00
262;DHT22;114;48.260;10.988;2022-07-22T10:06:03;29.50;1.00
262;DHT22;114;48.260;10.988;2022-07-22T10:08:30;29.70;1.00
262;DHT22;114;48.260;10.988;2022-07-22T10:11:03;29.80;1.00
262;DHT22;114;48.260;10.988;2022-07-22T10:13:30;29.80;1.00
262;DHT22;114;48.260;10.988;2022-07-22T10:15:57;30.00;1.00
262;DHT22;114;48.260;10.988;2022-07-22T10:18:23;30.20;1.00
262;DHT22;114;48.260;10.988;2022-07-22T10:21:04;30.50;1.00
262;DHT22;114;48.260;10.988;2022-07-22T10:23:31;30.70;1.00
262;DHT22;114;48.260;10.988;2022-07-22T10:26:00;30.80;1.00
262;DHT22;114;48.260;10.988;2022-07-22T10:28:36;30.90;1.00
262;DHT22;114;48.260;10.988;2022-07-22T10:31:23;31.10;1.00
262;DHT22;114;48.260;10.988;2022-07-22T10:33:56;30.90;1.00
262;DHT22;114;48.260;10.988;2022-07-22T10:36:36;31.20;1.00
262;DHT22;114;48.260;10.988;2022-07-22T10:41:41;31.50;1.00
262;DHT22;114;48.260;10.988;2022-07-22T10:44:08;31.00;1.00
262;DHT22;114;48.260;10.988;2022-07-22T10:46:54;31.40;1.00
262;DHT22;114;48.260;10.988;2022-07-22T10:49:23;31.90;1.00
262;DHT22;114;48.260;10.988;2022-07-22T10:52:10;32.30;1.00
262;DHT22;114;48.260;10.988;2022-07-22T10:55:19;32.60;1.00
262;DHT22;114;48.260;10.988;2022-07-22T10:57:45;31.30;1.00
262;DHT22;114;48.260;10.988;2022-07-22T11:00:11;31.50;1.00
262;DHT22;114;48.260;10.988;2022-07-22T11:02:38;32.00;1.00
262;DHT22;114;48.260;10.988;2022-07-22T11:05:04;32.60;1.00
262;DHT22;114;48.260;10.988;2022-07-22T11:07:30;32.90;1.00
262;DHT22;114;48.260;10.988;2022-07-22T11:10:13;33.40;1.00
262;DHT22;114;48.260;10.988;2022-07-22T11:12:39;32.90;1.00
262;DHT22;114;48.260;10.988;2022-07-22T11:15:06;33.40;1.00
262;DHT22;114;48.260;10.988;2022-07-22T11:17:34;33.40;1.00
262;DHT22;114;48.260;10.988;2022-07-22T11:20:11;33.80;1.00
262;DHT22;114;48.260;10.988;2022-07-22T11:22:39;34.30;1.00
262;DHT22;114;48.260;10.988;2022-07-22T11:25:07;34.50;1.00
262;DHT22;114;48.260;10.988;2022-07-22T11:27:33;34.50;1.00
262;DHT22;114;48.260;10.988;2022-07-22T11:29:59;34.10;1.00
262;DHT22;114;48.260;10.988;2022-07-22T11:32:27;34.40;1.00
262;DHT22;114;48.260;10.988;2022-07-22T11:34:56;34.60;1.00
262;DHT22;114;48.260;10.988;2022-07-22T11:37:24;34.20;1.00
262;DHT22;114;48.260;10.988;2022-07-22T11:39:52;34.30;1.00
262;DHT22;114;48.260;10.988;2022-07-22T11:42:25;34.30;1.00
262;DHT22;114;48.260;10.988;2022-07-22T11:44:51;34.30;1.00
262;DHT22;114;48.260;10.988;2022-07-22T11:47:17;34.60;1.00
262;DHT22;114;48.260;10.988;2022-07-22T11:49:46;34.70;1.00
262;DHT22;114;48.260;10.988;2022-07-22T11:52:13;35.10;1.00
262;DHT22;114;48.260;10.988;2022-07-22T11:54:40;35.40;1.00
262;DHT22;114;48.260;10.988;2022-07-22T11:57:07;35.20;1.00
262;DHT22;114;48.260;10.988;2022-07-22T11:59:34;35.30;1.00
262;DHT22;114;48.260;10.988;2022-07-22T12:02:02;35.60;1.00
262;DHT22;114;48.260;10.988;2022-07-22T12:04:29;35.80;1.00
262;DHT22;114;48.260;10.988;2022-07-22T12:06:59;36.50;1.00
262;DHT22;114;48.260;10.988;2022-07-22T12:09:30;38.20;1.00
262;DHT22;114;48.260;10.988;2022-07-22T12:11:57;41.40;1.00
262;DHT22;114;48.260;10.988;2022-07-22T12:14:26;42.00;1.00
262;DHT22;114;48.260;10.988;2022-07-22T12:16:59;41.40;1.00
262;DHT22;114;48.260;10.988;2022-07-22T12:19:27;40.30;1.00
262;DHT22;114;48.260;10.988;2022-07-22T12:22:09;39.30;1.00
262;DHT22;114;48.260;10.988;2022-07-22T12:24:38;38.60;1.00
262;DHT22;114;48.260;10.988;2022-07-22T12:27:10;38.30;1.00
262;DHT22;114;48.260;10.988;2022-07-22T12:34:38;41.30;1.00
262;DHT22;114;48.260;10.988;2022-07-22T12:37:22;41.60;1.00
262;DHT22;114;48.260;10.988;2022-07-22T12:40:11;42.20;1.00
262;DHT22;114;48.260;10.988;2022-07-22T12:42:45;42.60;1.00
262;DHT22;114;48.260;10.988;2022-07-22T12:45:17;42.70;1.00
262;DHT22;114;48.260;10.988;2022-07-22T12:50:18;43.00;1.00
262;DHT22;114;48.260;10.988;2022-07-22T12:52:45;43.00;1.00
262;DHT22;114;48.260;10.988;2022-07-22T12:55:10;43.00;1.00
262;DHT22;114;48.260;10.988;2022-07-22T12:57:36;43.00;1.00
262;DHT22;114;48.260;10.988;2022-07-22T13:00:03;43.50;1.00
262;DHT22;114;48.260;10.988;2022-07-22T13:02:30;44.10;1.00
262;DHT22;114;48.260;10.988;2022-07-22T13:04:56;44.00;1.00
262;DHT22;114;48.260;10.988;2022-07-22T13:07:21;44.80;1.00
262;DHT22;114;48.260;10.988;2022-07-22T13:09:47;44.90;1.00
262;DHT22;114;48.260;10.988;2022-07-22T13:12:13;45.20;1.00
262;DHT22;114;48.260;10.988;2022-07-22T13:14:39;45.70;1.00
262;DHT22;114;48.260;10.988;2022-07-22T13:17:07;46.20;1.00
262;DHT22;114;48.260;10.988;2022-07-22T13:19:34;46.10;1.00
262;DHT22;114;48.260;10.988;2022-07-22T13:22:00;45.70;1.00
262;DHT22;114;48.260;10.988;2022-07-22T13:24:26;45.60;1.00
262;DHT22;114;48.260;10.988;2022-07-22T13:26:52;45.50;1.00
262;DHT22;114;48.260;10.988;2022-07-22T13:29:18;46.30;1.00
262;DHT22;114;48.260;10.988;2022-07-22T13:31:43;45.90;1.00
262;DHT22;114;48.260;10.988;2022-07-22T13:34:09;45.70;1.00
262;DHT22;114;48.260;10.988;2022-07-22T13:36:35;46.20;1.00
262;DHT22;114;48.260;10.988;2022-07-22T13:39:01;45.80;1.00
262;DHT22;114;48.260;10.988;2022-07-22T13:41:31;46.20;1.00
262;DHT22;114;48.260;10.988;2022-07-22T13:43:57;46.40;1.00
262;DHT22;114;48.260;10.988;2022-07-22T13:46:23;45.40;1.00
262;DHT22;114;48.260;10.988;2022-07-22T13:48:49;46.20;1.00
262;DHT22;114;48.260;10.988;2022-07-22T13:51:18;45.50;1.00
262;DHT22;114;48.260;10.988;2022-07-22T13:53:44;46.20;1.00
262;DHT22;114;48.260;10.988;2022-07-22T13:56:10;46.00;1.00
262;DHT22;114;48.260;10.988;2022-07-22T13:58:38;45.70;1.00
262;DHT22;114;48.260;10.988;2022-07-22T14:01:07;45.90;1.00
262;DHT22;114;48.260;10.988;2022-07-22T14:03:34;45.60;1.00
262;DHT22;114;48.260;10.988;2022-07-22T14:06:00;46.10;1.00
262;DHT22;114;48.260;10.988;2022-07-22T14:08:26;46.80;1.00
262;DHT22;114;48.260;10.988;2022-07-22T14:10:52;46.90;1.00
262;DHT22;114;48.260;10.988;2022-07-22T14:13:18;47.30;1.00
262;DHT22;114;48.260;10.988;2022-07-22T14:15:43;47.10;1.00
262;DHT22;114;48.260;10.988;2022-07-22T14:18:09;47.10;1.00
262;DHT22;114;48.260;10.988;2022-07-22T14:20:36;46.90;1.00
262;DHT22;114;48.260;10.988;2022-07-22T14:23:02;47.20;1.00
262;DHT22;114;48.260;10.988;2022-07-22T14:25:28;46.80;1.00
262;DHT22;114;48.260;10.988;2022-07-22T14:27:54;46.80;1.00
262;DHT22;114;48.260;10.988;2022-07-22T14:30:20;46.40;1.00
262;DHT22;114;48.260;10.988;2022-07-22T14:32:46;46.80;1.00
262;DHT22;114;48.260;10.988;2022-07-22T14:35:12;47.20;1.00
262;DHT22;114;48.260;10.988;2022-07-22T14:37:40;47.20;1.00
262;DHT22;114;48.260;10.988;2022-07-22T14:40:06;47.40;1.00
262;DHT22;114;48.260;10.988;2022-07-22T14:42:33;47.40;1.00
262;DHT22;114;48.260;10.988;2022-07-22T14:44:58;46.60;1.00
262;DHT22;114;48.260;10.988;2022-07-22T14:47:24;46.60;1.00
262;DHT22;114;48.260;10.988;2022-07-22T14:49:50;46.80;1.00
262;DHT22;114;48.260;10.988;2022-07-22T14:52:16;46.70;1.00
262;DHT22;114;48.260;10.988;2022-07-22T14:54:41;47.10;1.00
262;DHT22;114;48.260;10.988;2022-07-22T14:57:07;47.30;1.00
262;DHT22;114;48.260;10.988;2022-07-22T14:59:33;47.50;1.00
262;DHT22;114;48.260;10.988;2022-07-22T15:01:58;47.40;1.00
262;DHT22;114;48.260;10.988;2022-07-22T15:04:24;47.90;1.00
262;DHT22;114;48.260;10.988;2022-07-22T15:06:50;47.50;1.00
262;DHT22;114;48.260;10.988;2022-07-22T15:09:16;47.20;1.00
262;DHT22;114;48.260;10.988;2022-07-22T15:11:42;47.20;1.00
262;DHT22;114;48.260;10.988;2022-07-22T15:14:07;47.30;1.00
262;DHT22;114;48.260;10.988;2022-07-22T15:16:33;47.70;1.00
262;DHT22;114;48.260;10.988;2022-07-22T15:18:59;47.60;1.00
262;DHT22;114;48.260;10.988;2022-07-22T15:21:25;47.40;1.00
262;DHT22;114;48.260;10.988;2022-07-22T15:23:50;47.70;1.00
262;DHT22;114;48.260;10.988;2022-07-22T15:26:17;47.50;1.00
262;DHT22;114;48.260;10.988;2022-07-22T15:28:42;47.30;1.00
262;DHT22;114;48.260;10.988;2022-07-22T15:31:09;47.40;1.00
262;DHT22;114;48.260;10.988;2022-07-22T15:33:36;47.00;1.00
262;DHT22;114;48.260;10.988;2022-07-22T15:36:03;47.20;1.00
262;DHT22;114;48.260;10.988;2022-07-22T15:38:29;47.50;1.00
262;DHT22;114;48.260;10.988;2022-07-22T15:40:54;47.40;1.00
262;DHT22;114;48.260;10.988;2022-07-22T15:43:20;47.30;1.00
262;DHT22;114;48.260;10.988;2022-07-22T15:45:46;47.20;1.00
262;DHT22;114;48.260;10.988;2022-07-22T15:48:11;47.20;1.00
262;DHT22;114;48.260;10.988;2022-07-22T15:50:37;47.30;1.00
262;DHT22;114;48.260;10.988;2022-07-22T15:53:03;47.20;1.00
262;DHT22;114;48.260;10.988;2022-07-22T15:55:29;47.40;1.00
262;DHT22;114;48.260;10.988;2022-07-22T15:57:55;47.40;1.00
262;DHT22;114;48.260;10.988;2022-07-22T16:00:40;47.50;1.00
262;DHT22;114;48.260;10.988;2022-07-22T16:03:06;47.00;1.00
262;DHT22;114;48.260;10.988;2022-07-22T16:05:32;46.80;1.00
262;DHT22;114;48.260;10.988;2022-07-22T16:07:58;46.80;1.00
262;DHT22;114;48.260;10.988;2022-07-22T16:10:26;46.30;1.00
262;DHT22;114;48.260;10.988;2022-07-22T16:12:52;46.20;1.00
262;DHT22;114;48.260;10.988;2022-07-22T16:15:18;46.20;1.00
262;DHT22;114;48.260;10.988;2022-07-22T16:17:44;46.50;1.00
262;DHT22;114;48.260;10.988;2022-07-22T16:20:10;46.40;1.00
262;DHT22;114;48.260;10.988;2022-07-22T16:22:37;46.10;1.00
262;DHT22;114;48.260;10.988;2022-07-22T16:25:03;46.10;1.00
262;DHT22;114;48.260;10.988;2022-07-22T16:27:29;44.70;1.00
262;DHT22;114;48.260;10.988;2022-07-22T16:29:56;44.30;1.00
262;DHT22;114;48.260;10.988;2022-07-22T16:32:23;44.60;1.00
262;DHT22;114;48.260;10.988;2022-07-22T16:34:48;44.80;1.00
262;DHT22;114;48.260;10.988;2022-07-22T16:37:14;44.90;1.00
262;DHT22;114;48.260;10.988;2022-07-22T16:39:40;45.30;1.00
262;DHT22;114;48.260;10.988;2022-07-22T16:42:06;44.90;1.00
262;DHT22;114;48.260;10.988;2022-07-22T16:44:32;43.90;1.00